Sevierville, TN (37862)

1:41 PM EST on February 10, 2016 (GMT -0500)
KOA Campground Pigeon Forge | | Change Station
CLOSE
Current Station
Personal Weather Station
Location: Pigeon Forge, TN
Elevation: 1037 ft
Nearby Weather Stations

Elev 1037 ft 35.79 °N, 83.55 °W | Updated 3 seconds ago

Overcast
Overcast
29.5 °F
Feels Like 30 °F
N
0.4
Wind Variable Wind from NNE
Gusts 2.5 mph

Today
High -- | Low -- °F
--% Chance of Precip.
Yesterday
High -- | Low -- °F
Precip. -- in
Pressure 30.12 in
Visibility 10.0 miles
Clouds Mostly Cloudy 4100 ft
Windchill 30 °F
Dew Point 9 °F
Humidity 42%
Rainfall 0.00 in
Snow Depth Not available.
7:26 AM 6:10 PM
Waxing Crescent, 6% visible
METAR KTYS 101753Z 27015G21KT 10SM BKN041 M03/M13 A3009 RMK AO2 SLP198 60000 T10331133 11022 21072 58003
Pressure 30.12 in
Visibility 10.0 miles
Clouds Mostly Cloudy 4100 ft
Windchill 30 °F
Dew Point 9 °F
Humidity 42%
Rainfall 0.00 in
Snow Depth Not available.
7:26 AM 6:10 PM
Waxing Crescent, 6% visible
METAR KTYS 101753Z 27015G21KT 10SM BKN041 M03/M13 A3009 RMK AO2 SLP198 60000 T10331133 11022 21072 58003

10-Day Weather Forecast

Almanac

Astronomy

Feb. 10, 2016 Rise Set
Actual Time
Civil Twilight
Nautical Twilight
Astronomical Twilight
Moon
Length of Visible Light
Length of Day
Tomorrow will be .
, % of the Moon is Illuminated

Today's Extremes

State Highs State Lows

Community

WunderPhotos

Upload Photos

1,891,915 photos uploaded!

WunderBlog® & News

Nearby

Air Quality

  Air Quality AQ Index Pollutant
Not available.

Snow Depth

Station Depth Elevation

Earthquake Activity

City Distance Mag. Time & Date
Minimum magnitude displayed is 2.5.

Coastal Water Temperatures

Place Temperature

Stations

Nearby Weather Stations

Station Location Temp. Windchill Dew Point Humidity Wind Precip. Elev Updated Type
                   

Watches & Warnings

There are currently no watches in effect.